sim
Sign-in with your pilot id or email,
or register
Callsign
Passwort

Schedule Details

Flight Number: EWG7526 (1)
Departure: Hamburg Airport (EDDH) at 10:15
Arrival: Fuerteventura Airport (GCFV) at 15:20
Route: Eurowings Passenger Schedule. Enter filed route here before submitting Pirep.

Weather Information
Getting current METAR information for EDDH 160250Z 14003KT CAVOK 02/M01 Q1025 NOSIG
Getting current METAR information for GCFV 160300Z AUTO 27006KT 9999 NCD 13/11 Q1017

Schedule Frequency

Route Map